Time;durP1;ratioP1;P1;durP2;ratioP2;P2;SDS_P1;SDS_P2;PMS_P1;PMS_P2;Temp;Humidity;BMP_temperature;BMP_pressure;BME280_temperature;BME280_humidity;BME280_pressure;Samples;Min_cycle;Max_cycle;Signal;HPM_P1;HPM_P2
2022/09/21 00:01:14;;;;;;;1.72;0.80;;;;;;;11.51;74.44;98880.83;1763351;81;21117;-45
2022/09/21 00:03:42;;;;;;;1.47;0.82;;;;;;;11.54;74.33;98886.06;1763317;81;20943;-45
2022/09/21 00:06:15;;;;;;;0.78;0.78;;;;;;;11.55;74.28;98880.27;1763355;81;21081;-45
2022/09/21 00:08:44;;;;;;;2.20;0.80;;;;;;;11.53;74.46;98877.72;1763379;81;21658;-45
2022/09/21 00:11:16;;;;;;;1.37;0.80;;;;;;;11.50;74.30;98883.34;1763277;81;21041;-45
2022/09/21 00:13:45;;;;;;;1.27;0.90;;;;;;;11.45;74.29;98868.75;1763688;81;21160;-44
2022/09/21 00:17:08;;;;;;;1.87;0.85;;;;;;;11.54;74.36;98875.98;1835771;78;22531;-45
2022/09/21 00:19:36;;;;;;;3.37;1.02;;;;;;;11.47;74.45;98880.03;1805801;79;21200;-44
2022/09/21 00:22:03;;;;;;;1.57;1.25;;;;;;;11.48;74.61;98880.20;1805843;79;21128;-45
2022/09/21 00:24:30;;;;;;;0.93;0.85;;;;;;;11.48;74.56;98877.48;1805964;79;21594;-44
2022/09/21 00:26:56;;;;;;;1.00;0.78;;;;;;;11.45;74.54;98872.83;1806106;79;21462;-45
2022/09/21 00:29:23;;;;;;;1.20;0.88;;;;;;;11.48;74.47;98873.42;1805840;79;21810;-45
2022/09/21 00:31:51;;;;;;;1.00;0.90;;;;;;;11.49;74.52;98872.27;1805842;79;21038;-44
2022/09/21 00:34:17;;;;;;;1.20;1.00;;;;;;;11.48;74.55;98873.99;1805977;79;21769;-44
2022/09/21 00:36:45;;;;;;;2.20;1.00;;;;;;;11.46;74.57;98873.61;1805528;79;21489;-44
2022/09/21 00:39:11;;;;;;;1.60;1.00;;;;;;;11.46;74.58;98871.67;1805795;79;21516;-44
2022/09/21 00:41:38;;;;;;;2.75;0.90;;;;;;;11.50;74.59;98872.48;1805979;79;21492;-45
2022/09/21 00:44:23;;;;;;;1.37;0.95;;;;;;;11.54;74.58;98867.84;1805725;79;21002;-44
2022/09/21 00:46:51;;;;;;;2.00;1.00;;;;;;;11.55;74.57;98878.13;1783010;79;23157;-45
2022/09/21 00:49:17;;;;;;;1.75;1.10;;;;;;;11.54;74.58;98880.64;1784216;79;20985;-44
2022/09/21 00:51:44;;;;;;;1.40;0.90;;;;;;;11.57;74.48;98878.55;1783968;80;21001;-45
2022/09/21 00:54:15;;;;;;;1.82;1.10;;;;;;;11.63;74.42;98876.44;1783933;80;20953;-44
2022/09/21 00:56:43;;;;;;;1.70;1.00;;;;;;;11.69;74.28;98879.58;1784072;80;21045;-44
2022/09/21 00:59:10;;;;;;;3.72;1.20;;;;;;;11.68;74.20;98878.02;1784158;79;21126;-45
2022/09/21 01:01:37;;;;;;;1.10;1.00;;;;;;;11.61;74.04;98882.06;1784173;80;20996;-45
2022/09/21 01:04:05;;;;;;;1.82;1.10;;;;;;;11.54;74.20;98878.70;1784131;79;21029;-44
2022/09/21 01:06:33;;;;;;;2.15;0.82;;;;;;;11.52;74.28;98883.72;1784186;80;21445;-44
2022/09/21 01:09:01;;;;;;;1.67;1.00;;;;;;;11.57;74.27;98883.38;1783978;79;21464;-45
2022/09/21 01:12:04;;;;;;;2.37;0.88;;;;;;;11.53;74.41;98886.64;1784021;80;21877;-44
2022/09/21 01:15:11;;;;;;;8.45;1.25;;;;;;;11.50;74.56;98876.55;1783962;80;20990;-45
2022/09/21 01:18:00;;;;;;;2.30;1.00;;;;;;;11.50;74.62;98879.27;1783750;80;21586;-44
2022/09/21 01:21:05;;;;;;;1.37;1.03;;;;;;;11.52;74.70;98880.25;1784243;80;21452;-45
2022/09/21 01:23:47;;;;;;;4.83;1.20;;;;;;;11.52;74.78;98875.58;1783815;80;21041;-44
2022/09/21 01:26:45;;;;;;;1.00;0.90;;;;;;;11.48;74.89;98885.63;1783694;80;21198;-44
2022/09/21 01:29:32;;;;;;;1.75;1.12;;;;;;;11.51;74.81;98877.33;1783179;80;21472;-44
2022/09/21 01:32:21;;;;;;;1.77;1.05;;;;;;;11.53;74.76;98883.14;1783388;80;21008;-45
2022/09/21 01:34:54;;;;;;;2.10;1.40;;;;;;;11.50;74.79;98886.05;1750371;80;21630;-45
2022/09/21 01:37:35;;;;;;;5.33;1.52;;;;;;;11.48;74.89;98878.84;1783292;79;21029;-44
2022/09/21 01:40:10;;;;;;;1.30;1.00;;;;;;;11.43;74.92;98881.91;1783512;79;21476;-44
2022/09/21 01:42:39;;;;;;;3.40;1.32;;;;;;;11.45;74.98;98881.55;1782818;80;21527;-45
2022/09/21 01:45:08;;;;;;;2.08;1.20;;;;;;;11.51;75.01;98885.48;1783530;80;20961;-44
2022/09/21 01:47:36;;;;;;;3.55;1.50;;;;;;;11.53;74.93;98893.43;1783357;80;21011;-44
2022/09/21 01:50:04;;;;;;;2.05;1.25;;;;;;;11.51;74.85;98894.41;1783736;80;20917;-44
2022/09/21 01:52:48;;;;;;;2.47;1.02;;;;;;;11.53;74.91;98893.43;1760569;80;21106;-45
2022/09/21 01:55:27;;;;;;;2.25;1.40;;;;;;;11.57;74.80;98892.12;1773698;80;21969;-44
2022/09/21 01:58:03;;;;;;;2.80;1.47;;;;;;;11.60;74.70;98892.14;1783555;80;20973;-44
2022/09/21 02:00:30;;;;;;;2.10;1.50;;;;;;;11.56;74.70;98887.84;1783410;79;21073;-44
2022/09/21 02:03:13;;;;;;;1.52;1.20;;;;;;;11.52;74.74;98887.04;1735267;80;21577;-44
2022/09/21 02:05:40;;;;;;;2.62;1.32;;;;;;;11.49;74.75;98882.34;1783211;79;21126;-43
2022/09/21 02:08:07;;;;;;;1.40;1.20;;;;;;;11.50;74.72;98887.41;1783230;79;20973;-44
2022/09/21 02:10:47;;;;;;;3.45;1.15;;;;;;;11.48;74.92;98884.28;1783169;80;20926;-45
2022/09/21 02:13:15;;;;;;;3.42;1.30;;;;;;;11.47;75.10;98886.81;1778242;80;21504;-43
2022/09/21 02:16:06;;;;;;;2.17;1.17;;;;;;;11.45;75.14;98883.69;1783042;79;21009;-44
2022/09/21 02:18:57;;;;;;;1.25;1.15;;;;;;;11.49;75.09;98892.62;1785411;79;21229;-44
2022/09/21 02:21:36;;;;;;;2.20;1.30;;;;;;;11.51;74.95;98888.97;1786454;79;21598;-44
2022/09/21 02:24:42;;;;;;;2.27;1.40;;;;;;;11.48;75.15;98891.64;1782142;79;22900;-44
2022/09/21 02:27:46;;;;;;;1.65;1.00;;;;;;;11.47;75.17;98899.03;1786565;80;20918;-43
2022/09/21 02:30:26;;;;;;;2.50;1.30;;;;;;;11.47;75.22;98899.03;1786698;80;20969;-43
2022/09/21 02:33:18;;;;;;;2.80;1.35;;;;;;;11.50;75.03;98898.27;1786561;79;21207;-44
2022/09/21 02:36:08;;;;;;;1.50;1.35;;;;;;;11.47;74.97;98897.67;1786526;80;20921;-44
2022/09/21 02:38:53;;;;;;;;;;;;;;;11.44;75.09;98895.69;1789200;80;20993;-43
2022/09/21 02:41:54;;;;;;;1.90;1.20;;;;;;;11.45;75.17;98892.41;1785790;80;20124;-44
2022/09/21 02:44:32;;;;;;;3.47;1.50;;;;;;;11.44;75.18;98898.98;1786794;79;20996;-43
2022/09/21 02:46:58;;;;;;;2.35;1.32;;;;;;;11.44;75.11;98892.97;1786410;80;21241;-43
2022/09/21 02:49:30;;;;;;;3.20;1.42;;;;;;;11.44;75.21;98894.33;1786719;80;20921;-44
2022/09/21 02:52:00;;;;;;;1.27;1.00;;;;;;;11.44;75.18;98894.91;1786751;80;20996;-45
2022/09/21 02:54:30;;;;;;;2.30;1.10;;;;;;;11.43;75.19;98899.55;1786881;80;21000;-44
2022/09/21 02:56:57;;;;;;;2.80;1.32;;;;;;;11.49;74.88;98894.56;1786600;79;21017;-44
2022/09/21 02:59:24;;;;;;;1.92;1.20;;;;;;;11.51;74.89;98899.05;1786531;80;21113;-45
2022/09/21 03:01:51;;;;;;;4.50;1.32;;;;;;;11.50;74.90;98905.05;1786525;79;20974;-44
2022/09/21 03:04:18;;;;;;;1.32;1.22;;;;;;;11.48;74.95;98901.92;1740354;80;21495;-44
2022/09/21 03:06:46;;;;;;;2.12;1.47;;;;;;;11.45;74.98;98906.75;1786635;80;21758;-44
2022/09/21 03:09:14;;;;;;;1.37;1.27;;;;;;;11.51;74.92;98905.26;1786501;80;21017;-44
2022/09/21 03:11:42;;;;;;;1.57;1.20;;;;;;;11.54;74.72;98906.42;1786570;79;21228;-45
2022/09/21 03:14:09;;;;;;;2.75;1.10;;;;;;;11.53;74.93;98907.00;1786476;79;21006;-45
2022/09/21 03:16:36;;;;;;;1.72;1.30;;;;;;;11.52;74.92;98912.23;1786408;80;21012;-45
2022/09/21 03:19:04;;;;;;;2.12;1.37;;;;;;;11.54;74.68;98909.92;1772520;79;21069;-45
2022/09/21 03:21:31;;;;;;;1.60;1.30;;;;;;;11.56;74.64;98908.20;1772534;81;20930;-44
2022/09/21 03:23:58;;;;;;;2.20;1.45;;;;;;;11.58;74.67;98908.02;1772603;81;21221;-44
2022/09/21 03:26:24;;;;;;;2.42;1.65;;;;;;;11.60;74.76;98906.28;1772345;81;21005;-44
2022/09/21 03:28:53;;;;;;;3.60;1.52;;;;;;;11.56;74.60;98911.70;1772634;79;21496;-44
2022/09/21 03:31:21;;;;;;;1.95;1.30;;;;;;;11.51;74.54;98910.69;1772646;79;21009;-44
2022/09/21 03:33:48;;;;;;;3.50;1.42;;;;;;;11.51;74.66;98916.12;1772754;81;21061;-44
2022/09/21 03:36:15;;;;;;;1.90;1.40;;;;;;;11.47;74.64;98909.89;1772557;81;21146;-44
2022/09/21 03:38:42;;;;;;;1.30;1.20;;;;;;;11.52;74.75;98916.30;1772656;79;21006;-44
2022/09/21 03:41:09;;;;;;;2.42;1.50;;;;;;;11.50;74.68;98917.27;1772603;81;20949;-44
2022/09/21 03:43:35;;;;;;;1.40;1.30;;;;;;;11.46;74.70;98926.54;1772804;79;21025;-44
2022/09/21 03:46:02;;;;;;;1.77;1.32;;;;;;;11.44;74.89;98920.69;1772527;79;21005;-44
2022/09/21 03:48:29;;;;;;;4.22;1.50;;;;;;;11.49;74.84;98918.98;1772511;79;22025;-44
2022/09/21 03:50:56;;;;;;;3.00;1.30;;;;;;;11.55;74.74;98919.64;1772411;79;21548;-44
2022/09/21 03:53:23;;;;;;;3.25;1.27;;;;;;;11.55;74.65;98928.36;1772424;79;21076;-44
2022/09/21 03:55:52;;;;;;;5.05;1.72;;;;;;;11.53;74.61;98924.64;1772340;81;21495;-44
2022/09/21 03:58:19;;;;;;;2.08;1.32;;;;;;;11.51;74.41;98921.55;1772377;81;21045;-44
2022/09/21 04:00:46;;;;;;;4.67;1.35;;;;;;;11.50;74.35;98925.41;1772595;79;21232;-44
2022/09/21 04:03:12;;;;;;;2.22;1.50;;;;;;;11.45;74.41;98929.05;1772366;81;21021;-44
2022/09/21 04:05:39;;;;;;;3.00;1.22;;;;;;;11.37;74.73;98930.15;1772524;81;20937;-44
2022/09/21 04:08:07;;;;;;;4.67;1.22;;;;;;;11.34;74.97;98926.23;1772423;79;20938;-44
2022/09/21 04:10:35;;;;;;;1.70;1.20;;;;;;;11.32;75.08;98929.34;1772545;79;21024;-44
2022/09/21 04:13:05;;;;;;;2.75;1.35;;;;;;;11.36;75.13;98932.08;1772834;81;21496;-44
2022/09/21 04:15:32;;;;;;;3.85;1.40;;;;;;;11.39;75.20;98933.25;1772362;81;21000;-44
2022/09/21 04:17:59;;;;;;;2.25;1.57;;;;;;;11.38;75.00;98935.75;1772385;79;21286;-44
2022/09/21 04:20:26;;;;;;;2.02;1.40;;;;;;;11.33;75.09;98938.23;1772532;81;21017;-44
2022/09/21 04:22:53;;;;;;;1.75;1.32;;;;;;;11.29;75.17;98938.21;1772824;81;21013;-44
2022/09/21 04:25:19;;;;;;;1.65;1.20;;;;;;;11.32;75.31;98938.06;1772554;81;23126;-44
2022/09/21 04:27:48;;;;;;;1.72;1.37;;;;;;;11.36;75.33;98938.87;1772690;79;21650;-44
2022/09/21 04:30:15;;;;;;;1.65;1.30;;;;;;;11.37;75.49;98942.36;1772690;79;21014;-44
2022/09/21 04:32:42;;;;;;;3.37;1.47;;;;;;;11.38;75.52;98939.83;1772591;79;21076;-45
2022/09/21 04:35:09;;;;;;;1.52;1.40;;;;;;;11.41;75.48;98942.59;1772477;79;20991;-44
2022/09/21 04:37:36;;;;;;;2.10;1.85;;;;;;;11.48;75.27;98948.06;1772532;81;21228;-44
2022/09/21 04:40:04;;;;;;;3.42;1.30;;;;;;;11.53;75.10;98946.36;1772470;81;20970;-44
2022/09/21 04:42:31;;;;;;;2.67;1.37;;;;;;;11.53;75.10;98946.94;1772472;81;21645;-44
2022/09/21 04:44:59;;;;;;;3.08;1.15;;;;;;;11.55;75.11;98948.14;1772400;81;21013;-44
2022/09/21 04:47:30;;;;;;;1.92;1.10;;;;;;;11.56;75.01;98948.92;1772369;79;21033;-44
2022/09/21 04:49:56;;;;;;;1.87;1.32;;;;;;;11.63;74.75;98945.67;1772559;81;21146;-44
2022/09/21 04:52:23;;;;;;;2.65;1.62;;;;;;;11.66;74.77;98950.95;1772412;81;21026;-44
2022/09/21 04:54:50;;;;;;;3.33;1.50;;;;;;;11.65;74.86;98948.81;1772424;81;21004;-44
2022/09/21 04:57:17;;;;;;;1.37;1.25;;;;;;;11.64;74.86;98951.31;1772204;81;21571;-44
2022/09/21 04:59:44;;;;;;;1.90;1.15;;;;;;;11.65;74.85;98947.45;1772490;81;21361;-44
2022/09/21 05:02:11;;;;;;;2.95;1.30;;;;;;;11.70;74.72;98943.03;1772563;79;21223;-44
2022/09/21 05:04:38;;;;;;;2.10;1.40;;;;;;;11.73;74.77;98946.37;1772788;81;21535;-44
2022/09/21 05:07:05;;;;;;;3.27;1.30;;;;;;;11.74;74.71;98950.65;1772771;81;21012;-44
2022/09/21 05:12:17;;;;;;;1.72;1.20;;;;;;;11.63;74.46;98955.17;1772879;81;21065;-44
2022/09/21 05:14:45;;;;;;;3.17;1.40;;;;;;;11.63;74.80;98948.39;1773015;81;21220;-44
2022/09/21 05:17:12;;;;;;;3.83;1.30;;;;;;;11.62;74.66;98953.61;1772591;81;20992;-44
2022/09/21 05:19:40;;;;;;;2.90;1.15;;;;;;;11.60;75.07;98958.66;1788889;80;20953;-44
2022/09/21 05:22:06;;;;;;;3.60;1.27;;;;;;;11.62;75.25;98960.98;1789471;80;21064;-44
2022/09/21 05:24:33;;;;;;;3.15;1.20;;;;;;;11.63;75.20;98960.61;1789320;80;21020;-44
2022/09/21 05:27:01;;;;;;;2.25;1.22;;;;;;;11.68;75.12;98967.05;1789187;79;21132;-44
2022/09/21 05:29:28;;;;;;;2.37;1.67;;;;;;;11.69;75.06;98964.55;1789118;80;20965;-44
2022/09/21 05:32:36;;;;;;;1.45;1.30;;;;;;;11.67;75.15;98966.06;1789504;80;21000;-44
2022/09/21 05:35:18;;;;;;;1.17;1.07;;;;;;;11.63;75.14;98966.04;1789295;79;21029;-44
2022/09/21 05:38:01;;;;;;;2.08;1.30;;;;;;;11.63;75.13;98968.75;1789236;79;21498;-45
2022/09/21 05:40:30;;;;;;;3.05;1.25;;;;;;;11.66;75.00;98963.95;1789186;80;21089;-44
2022/09/21 05:42:58;;;;;;;1.77;1.50;;;;;;;11.63;75.14;98962.54;1789376;80;20960;-44
2022/09/21 05:45:27;;;;;;;1.05;0.95;;;;;;;11.61;75.13;98966.22;1789144;79;20941;-44
2022/09/21 05:48:15;;;;;;;3.37;1.27;;;;;;;11.61;75.24;98971.08;1789673;80;21000;-44
2022/09/21 05:51:07;;;;;;;3.45;1.50;;;;;;;11.65;75.04;98967.81;1789470;79;21020;-45
2022/09/21 05:53:49;;;;;;;3.40;1.42;;;;;;;11.63;75.08;98976.12;1789255;80;21236;-45
2022/09/21 05:56:38;;;;;;;1.90;1.40;;;;;;;11.61;75.24;98972.44;1789246;79;21550;-45
2022/09/21 05:59:29;;;;;;;1.95;1.25;;;;;;;11.61;75.42;98980.59;1789329;79;20957;-45
2022/09/21 06:02:16;;;;;;;1.37;1.20;;;;;;;11.68;75.35;98975.77;1746629;79;21021;-45
2022/09/21 06:04:44;;;;;;;2.50;1.50;;;;;;;11.70;75.02;98980.27;1788078;79;20990;-45
2022/09/21 06:07:11;;;;;;;4.78;1.20;;;;;;;11.70;75.21;98973.47;1787228;80;21224;-45
2022/09/21 06:09:39;;;;;;;1.98;1.30;;;;;;;11.72;75.24;98982.81;1787307;80;20915;-41
2022/09/21 06:12:08;;;;;;;3.10;1.10;;;;;;;11.75;74.90;98986.16;1786417;80;21020;-44
2022/09/21 06:14:35;;;;;;;3.17;1.67;;;;;;;11.75;74.77;98982.09;1759803;80;20997;-41
2022/09/21 06:17:03;;;;;;;2.25;1.30;;;;;;;11.76;74.90;98988.30;1787667;80;21122;-41
2022/09/21 06:19:30;;;;;;;2.10;1.15;;;;;;;11.74;75.11;98982.45;1776267;79;21073;-41
2022/09/21 06:21:57;;;;;;;1.60;1.30;;;;;;;11.76;75.64;98983.62;1734703;82;21006;-41
2022/09/21 06:24:23;;;;;;;1.17;1.07;;;;;;;11.81;75.72;98986.59;1721459;83;21149;-41
2022/09/21 06:26:50;;;;;;;1.20;1.10;;;;;;;11.94;75.68;98995.22;1721502;82;21569;-41
2022/09/21 06:29:22;;;;;;;2.35;1.30;;;;;;;12.04;75.43;98997.23;1721375;83;21066;-41
2022/09/21 06:31:46;;;;;;;1.30;1.20;;;;;;;12.05;75.22;98996.84;1719305;83;21648;-41
2022/09/21 06:34:12;;;;;;;1.62;1.30;;;;;;;12.07;75.29;98997.83;1770914;80;21013;-41
2022/09/21 06:36:40;;;;;;;1.25;1.02;;;;;;;12.13;75.53;99002.54;1768158;80;20996;-41
2022/09/21 06:39:07;;;;;;;2.83;1.20;;;;;;;12.23;74.58;98999.70;1768260;81;20966;-41
2022/09/21 06:41:33;;;;;;;1.27;1.00;;;;;;;12.30;74.70;99001.08;1769386;81;21574;-41
2022/09/21 06:44:02;;;;;;;2.10;1.30;;;;;;;12.34;74.71;98999.19;1737798;82;21240;-41
2022/09/21 06:46:28;;;;;;;4.03;1.15;;;;;;;12.41;74.63;98996.49;1727442;83;20958;-41
2022/09/21 06:48:56;;;;;;;1.42;1.25;;;;;;;12.50;74.30;98999.64;1727065;82;21041;-41
2022/09/21 06:51:22;;;;;;;1.98;1.37;;;;;;;12.60;73.60;99000.28;1727069;83;21588;-41
2022/09/21 06:53:55;;;;;;;1.62;1.42;;;;;;;12.62;73.01;99004.77;1727775;83;21089;-41
2022/09/21 06:56:22;;;;;;;2.67;1.70;;;;;;;12.59;72.60;99006.09;1706215;83;21766;-41
2022/09/21 06:58:49;;;;;;;4.03;1.40;;;;;;;12.54;72.63;99001.02;1724785;81;21486;-41
2022/09/21 07:01:16;;;;;;;1.60;1.40;;;;;;;12.50;72.58;99007.80;1724360;83;21912;-41
2022/09/21 07:03:42;;;;;;;2.92;1.42;;;;;;;12.51;72.76;99008.02;1724196;83;21595;-41
2022/09/21 07:06:13;;;;;;;2.55;1.37;;;;;;;12.53;72.55;99009.78;1724274;83;21011;-41
2022/09/21 07:08:41;;;;;;;1.83;1.60;;;;;;;12.45;72.50;99012.24;1724775;83;21551;-41
2022/09/21 07:11:09;;;;;;;1.98;1.40;;;;;;;12.38;72.66;99009.50;1776649;80;20968;-41
2022/09/21 07:13:36;;;;;;;1.90;1.50;;;;;;;12.36;72.77;99017.23;1776826;80;21067;-41
2022/09/21 07:16:06;;;;;;;2.52;1.37;;;;;;;12.35;72.59;99018.39;1776794;80;21028;-41
2022/09/21 07:18:39;;;;;;;1.80;1.60;;;;;;;12.31;72.55;99024.39;1777156;80;21024;-41
2022/09/21 07:21:08;;;;;;;2.70;1.98;;;;;;;12.24;72.98;99028.44;1776779;80;22013;-41
2022/09/21 07:23:35;;;;;;;2.15;1.47;;;;;;;12.20;73.46;99022.95;1777080;80;21002;-41
2022/09/21 07:26:06;;;;;;;3.42;1.47;;;;;;;12.19;73.13;99028.79;1776868;80;20924;-41
2022/09/21 07:28:34;;;;;;;1.77;1.60;;;;;;;12.20;73.29;99037.12;1776483;80;20987;-41
2022/09/21 07:31:12;;;;;;;1.92;1.55;;;;;;;12.19;73.40;99036.94;1779251;80;21024;-41
2022/09/21 07:33:40;;;;;;;2.20;1.77;;;;;;;12.18;73.71;99036.73;1780330;80;21208;-41
2022/09/21 07:36:11;;;;;;;1.40;1.30;;;;;;;12.14;73.63;99040.80;1780367;79;20984;-41
2022/09/21 07:38:41;;;;;;;2.35;1.50;;;;;;;12.11;73.60;99040.74;1780355;80;21069;-41
2022/09/21 07:41:12;;;;;;;1.85;1.65;;;;;;;12.11;73.76;99043.46;1780703;80;21517;-41
2022/09/21 07:43:40;;;;;;;2.00;1.50;;;;;;;12.10;73.95;99041.32;1780640;80;21305;-41
2022/09/21 07:46:11;;;;;;;2.05;1.70;;;;;;;12.10;74.27;99045.39;1779037;80;21024;-41
2022/09/21 07:48:38;;;;;;;2.42;1.90;;;;;;;12.07;74.16;99047.52;1780733;80;21008;-44
2022/09/21 07:51:08;;;;;;;2.65;1.60;;;;;;;12.06;74.45;99045.95;1779880;80;20964;-44
2022/09/21 07:53:36;;;;;;;1.90;1.77;;;;;;;12.11;74.58;99046.18;1781059;80;21071;-44
2022/09/21 07:56:10;;;;;;;2.42;1.82;;;;;;;12.14;74.65;99047.59;1775498;80;21040;-44
2022/09/21 08:01:24;;;;;;;2.62;1.60;;;;;;;12.07;74.60;99052.17;1780763;80;21445;-44
2022/09/21 08:03:52;;;;;;;1.92;1.77;;;;;;;12.04;74.85;99058.37;1781146;80;21504;-44
2022/09/21 08:06:19;;;;;;;2.62;1.57;;;;;;;12.11;74.75;99057.83;1780506;80;21032;-44
2022/09/21 08:08:47;;;;;;;2.10;1.82;;;;;;;12.15;74.77;99060.00;1780990;80;21004;-44
2022/09/21 08:11:15;;;;;;;2.05;1.70;;;;;;;12.14;74.58;99056.31;1780579;80;21267;-44
2022/09/21 08:13:43;;;;;;;2.80;1.70;;;;;;;12.11;74.69;99057.83;1780876;80;20909;-44
2022/09/21 08:16:11;;;;;;;2.33;1.80;;;;;;;12.12;74.76;99059.97;1780727;80;21007;-44
2022/09/21 08:18:40;;;;;;;2.22;1.62;;;;;;;12.17;74.88;99061.77;1779590;79;21071;-44
2022/09/21 08:21:07;;;;;;;2.00;1.50;;;;;;;12.29;75.04;99055.84;1738146;82;21028;-44
2022/09/21 08:23:34;;;;;;;2.65;1.70;;;;;;;12.36;74.97;99059.95;1704444;83;21200;-44
2022/09/21 08:26:05;;;;;;;2.33;1.55;;;;;;;12.44;75.06;99059.61;1727510;83;21509;-44
2022/09/21 08:28:32;;;;;;;1.50;1.40;;;;;;;12.48;74.44;99062.38;1727275;83;21052;-44
2022/09/21 08:31:07;;;;;;;1.80;1.47;;;;;;;12.56;74.27;99067.47;1727481;83;21049;-44
2022/09/21 08:33:35;;;;;;;2.37;1.62;;;;;;;12.62;73.79;99063.24;1727408;82;21822;-44
2022/09/21 08:36:03;;;;;;;2.27;1.80;;;;;;;12.60;73.27;99065.55;1727642;83;21950;-44
2022/09/21 08:38:35;;;;;;;2.52;1.82;;;;;;;12.60;73.41;99064.19;1727691;83;20962;-44
2022/09/21 08:41:19;;;;;;;2.27;1.60;;;;;;;12.62;73.01;99061.89;1728053;83;21025;-44
2022/09/21 08:44:03;;;;;;;3.65;1.92;;;;;;;12.70;73.33;99066.77;1727713;82;21045;-44
2022/09/21 08:46:31;;;;;;;3.42;2.02;;;;;;;12.77;73.51;99064.68;1727716;83;21096;-44
2022/09/21 08:49:18;;;;;;;1.98;1.77;;;;;;;12.78;73.23;99066.25;1727697;83;21200;-44
2022/09/21 08:51:56;;;;;;;2.20;1.80;;;;;;;12.78;73.33;99068.97;1727404;83;21018;-44
2022/09/21 08:54:37;;;;;;;1.65;1.55;;;;;;;12.79;73.60;99069.14;1727230;83;20950;-44
2022/09/21 08:57:04;;;;;;;2.62;1.70;;;;;;;12.88;73.41;99063.55;1722742;83;21077;-44
2022/09/21 08:59:33;;;;;;;2.83;1.90;;;;;;;12.97;73.43;99070.78;1727601;83;21109;-44
2022/09/21 09:02:24;;;;;;;3.65;1.85;;;;;;;13.02;73.39;99065.58;1728042;82;21553;-44
2022/09/21 09:05:11;;;;;;;3.42;1.67;;;;;;;13.03;72.68;99071.20;1668695;83;21081;-44
2022/09/21 09:08:02;;;;;;;3.15;1.80;;;;;;;13.06;72.45;99074.53;1727826;83;21002;-44
2022/09/21 09:10:38;;;;;;;2.30;2.10;;;;;;;13.04;72.06;99068.11;1727464;83;21481;-44
2022/09/21 09:13:49;;;;;;;1.80;1.70;;;;;;;13.00;72.42;99074.70;1727742;82;21081;-44
2022/09/21 09:16:44;;;;;;;3.65;1.70;;;;;;;13.01;72.48;99077.63;1723161;83;21154;-44
2022/09/21 09:19:27;;;;;;;2.20;1.57;;;;;;;13.08;72.70;99078.42;1722946;82;21065;-45
2022/09/21 09:21:55;;;;;;;4.10;1.87;;;;;;;13.19;72.32;99068.97;1726888;83;21106;-43
2022/09/21 09:24:41;;;;;;;2.77;1.90;;;;;;;13.29;72.61;99076.98;1727788;83;20911;-44
2022/09/21 09:27:40;;;;;;;2.75;2.20;;;;;;;13.37;72.69;99073.89;1727768;83;21630;-44
2022/09/21 09:30:22;;;;;;;2.10;1.90;;;;;;;13.42;71.89;99069.43;1722321;82;21172;-44
2022/09/21 09:33:03;;;;;;;1.82;1.70;;;;;;;13.42;70.72;99070.80;1726708;83;20918;-44
2022/09/21 09:35:49;;;;;;;2.20;2.00;;;;;;;13.45;70.37;99074.13;1727673;83;20965;-44
2022/09/21 09:38:27;;;;;;;1.82;1.55;;;;;;;13.48;70.92;99070.63;1727642;83;21273;-44
2022/09/21 09:41:33;;;;;;;2.00;1.82;;;;;;;13.51;70.42;99072.39;1727759;83;21100;-44
2022/09/21 09:44:24;;;;;;;1.90;1.72;;;;;;;13.45;70.20;99070.05;1727431;83;21192;-44
2022/09/21 09:47:32;;;;;;;8.20;2.27;;;;;;;13.32;69.38;99072.90;1727617;83;20970;-44
2022/09/21 09:50:27;;;;;;;3.83;2.00;;;;;;;13.28;70.42;99078.14;1727569;83;21026;-44
2022/09/21 09:53:14;;;;;;;4.65;2.00;;;;;;;13.35;71.12;99081.68;1727450;83;21623;-44
2022/09/21 09:55:49;;;;;;;3.65;2.08;;;;;;;13.42;70.54;99069.43;1727556;82;21081;-43
2022/09/21 09:58:32;;;;;;;2.33;2.12;;;;;;;13.55;70.47;99071.81;1727797;83;21066;-44
2022/09/21 10:01:00;;;;;;;2.92;2.08;;;;;;;13.71;69.82;99069.48;1727436;82;21016;-44
2022/09/21 10:03:27;;;;;;;2.47;1.90;;;;;;;13.81;69.82;99070.09;1727467;83;20954;-44
2022/09/21 10:05:54;;;;;;;2.70;2.00;;;;;;;13.88;68.40;99074.98;1727441;82;21006;-44
2022/09/21 10:08:43;;;;;;;2.72;1.87;;;;;;;13.89;67.92;99070.31;1727507;83;21042;-44
2022/09/21 10:11:14;;;;;;;3.30;2.00;;;;;;;13.90;67.72;99074.57;1727947;83;21081;-44
2022/09/21 10:13:45;;;;;;;3.95;3.55;;;;;;;13.89;67.99;99068.34;1725489;82;21076;-44
2022/09/21 10:16:21;;;;;;;2.52;2.00;;;;;;;13.91;68.11;99069.32;1727849;83;20946;-44
2022/09/21 10:18:57;;;;;;;5.03;2.45;;;;;;;13.88;67.59;99069.53;1722937;82;21647;-44
2022/09/21 10:21:34;;;;;;;2.95;2.27;;;;;;;13.81;67.80;99070.09;1747494;81;21085;-41
2022/09/21 10:24:08;;;;;;;2.25;2.05;;;;;;;13.78;68.20;99070.87;1705716;83;21241;-44
2022/09/21 10:26:46;;;;;;;3.02;2.40;;;;;;;13.74;68.28;99066.00;1750866;81;21033;-45
2022/09/21 10:29:25;;;;;;;3.00;2.30;;;;;;;13.68;68.36;99073.00;1752391;81;21030;-45
2022/09/21 10:31:57;;;;;;;2.93;2.43;;;;;;;13.66;68.54;99068.50;1752820;81;21451;-45
2022/09/21 10:34:29;;;;;;;3.05;2.27;;;;;;;13.62;68.03;99067.72;1752426;81;21049;-45
2022/09/21 10:36:59;;;;;;;3.77;2.70;;;;;;;13.55;68.28;99075.31;1752449;81;21143;-45
2022/09/21 10:39:31;;;;;;;2.85;2.55;;;;;;;13.52;67.72;99071.20;1747129;81;20927;-44
2022/09/21 10:42:08;;;;;;;3.15;2.55;;;;;;;13.50;67.49;99074.33;1774801;79;21005;-45
2022/09/21 10:44:41;;;;;;;3.20;2.37;;;;;;;13.52;68.34;99080.16;1783066;80;21604;-44
2022/09/21 10:47:40;;;;;;;4.50;2.72;;;;;;;13.65;67.98;99079.23;1782135;80;20961;-44
2022/09/21 10:50:29;;;;;;;3.27;2.90;;;;;;;13.75;67.29;99077.08;1779628;79;21240;-44
2022/09/21 10:53:14;;;;;;;6.60;3.15;;;;;;;13.78;67.64;99073.59;1778621;79;20953;-45
2022/09/21 10:56:06;;;;;;;4.28;3.40;;;;;;;13.81;67.70;99083.12;1751469;81;21088;-45
2022/09/21 10:58:34;;;;;;;4.08;3.35;;;;;;;13.85;67.67;99079.04;1775567;80;21503;-45
2022/09/21 11:01:22;;;;;;;4.28;3.27;;;;;;;13.79;67.18;99077.89;1748303;82;21016;-45
2022/09/21 11:04:08;;;;;;;4.22;3.40;;;;;;;13.72;67.60;99081.37;1748964;82;21478;-45
2022/09/21 11:06:45;;;;;;;5.42;3.92;;;;;;;13.64;68.17;99087.98;1749637;82;21053;-45
2022/09/21 11:09:39;;;;;;;5.80;4.45;;;;;;;13.52;68.31;99079.37;1750443;82;21077;-45
2022/09/21 11:12:17;;;;;;;6.35;3.98;;;;;;;13.40;68.87;99083.25;1750280;81;21025;-45
2022/09/21 11:15:16;;;;;;;4.30;3.60;;;;;;;13.30;69.24;99088.86;1748530;81;20993;-45
2022/09/21 11:17:49;;;;;;;5.35;3.83;;;;;;;13.23;69.66;99086.09;1781202;80;21270;-44
2022/09/21 11:20:27;;;;;;;5.50;3.92;;;;;;;13.12;68.75;99083.91;1786165;80;21015;-45
2022/09/21 11:23:20;;;;;;;4.80;3.85;;;;;;;12.98;69.52;99081.88;1790794;80;21032;-45
2022/09/21 11:26:10;;;;;;;5.30;3.83;;;;;;;12.91;69.45;99083.80;1790615;80;21079;-45
2022/09/21 11:28:49;;;;;;;5.22;3.17;;;;;;;12.83;69.67;99083.56;1774898;80;21013;-45
2022/09/21 11:31:43;;;;;;;6.53;3.92;;;;;;;12.81;69.45;99081.22;1786698;80;21167;-44
2022/09/21 11:34:27;;;;;;;6.37;3.47;;;;;;;12.87;69.71;99083.78;1768410;80;20933;-44
2022/09/21 11:37:21;;;;;;;4.62;3.70;;;;;;;12.94;69.94;99077.58;1770311;80;21011;-44
2022/09/21 11:40:08;;;;;;;6.33;4.10;;;;;;;12.97;69.87;99073.50;1721079;82;21504;-44
2022/09/21 11:43:08;;;;;;;4.67;3.02;;;;;;;13.00;69.85;99071.98;1737398;82;21053;-44
2022/09/21 11:45:57;;;;;;;4.03;3.10;;;;;;;13.07;69.20;99078.80;1707796;84;23155;-45
2022/09/21 11:49:05;;;;;;;4.75;3.70;;;;;;;13.12;68.40;99071.66;1726177;83;21593;-45
2022/09/21 11:51:54;;;;;;;5.10;3.87;;;;;;;13.21;68.63;99075.41;1716432;81;21037;-44
2022/09/21 11:54:51;;;;;;;;;;;;;;;13.54;68.98;99075.11;1764178;81;20997;-45
2022/09/21 11:57:32;;;;;;;3.83;2.90;;;;;;;14.01;66.95;99061.73;1759658;81;20180;-43
2022/09/21 12:00:21;;;;;;;2.80;2.50;;;;;;;14.30;66.31;99064.65;1759660;81;21218;-43
2022/09/21 12:03:28;;;;;;;4.20;2.80;;;;;;;14.63;64.52;99064.03;1690299;84;20937;-43
2022/09/21 12:06:03;;;;;;;4.92;3.27;;;;;;;14.94;63.09;99064.55;1720330;82;20947;-44
2022/09/21 12:09:06;;;;;;;3.52;2.85;;;;;;;15.29;62.47;99061.48;1715888;83;21020;-44
2022/09/21 12:11:59;;;;;;;3.65;2.95;;;;;;;15.54;61.03;99061.55;1750318;82;21085;-43
2022/09/21 12:14:54;;;;;;;3.77;2.77;;;;;;;15.65;60.44;99061.48;1750325;82;21246;-44
2022/09/21 12:17:54;;;;;;;4.47;3.00;;;;;;;15.63;59.82;99062.48;1746919;82;21641;-44